sensor_id;sensor_type;location;lat;lon;timestamp;temperature;humidity
42615;DHT22;28754;47.700;7.924;2023-08-24T00:01:11;23.50;99.90
42615;DHT22;28754;47.700;7.924;2023-08-24T00:04:00;23.40;99.90
42615;DHT22;28754;47.700;7.924;2023-08-24T00:06:47;23.50;99.90
42615;DHT22;28754;47.700;7.924;2023-08-24T00:09:34;23.60;99.90
42615;DHT22;28754;47.700;7.924;2023-08-24T00:12:20;23.60;99.90
42615;DHT22;28754;47.700;7.924;2023-08-24T00:15:11;23.60;99.90
42615;DHT22;28754;47.700;7.924;2023-08-24T00:18:03;23.60;99.90
42615;DHT22;28754;47.700;7.924;2023-08-24T00:20:50;23.60;99.90
42615;DHT22;28754;47.700;7.924;2023-08-24T00:23:37;23.60;99.90
42615;DHT22;28754;47.700;7.924;2023-08-24T00:26:25;23.50;99.90
42615;DHT22;28754;47.700;7.924;2023-08-24T00:29:11;23.50;99.90
42615;DHT22;28754;47.700;7.924;2023-08-24T00:31:59;23.50;99.90
42615;DHT22;28754;47.700;7.924;2023-08-24T00:34:46;23.40;99.90
42615;DHT22;28754;47.700;7.924;2023-08-24T00:37:33;23.50;99.90
42615;DHT22;28754;47.700;7.924;2023-08-24T00:40:20;23.40;99.90
42615;DHT22;28754;47.700;7.924;2023-08-24T00:43:07;23.40;99.90
42615;DHT22;28754;47.700;7.924;2023-08-24T00:45:56;23.40;99.90
42615;DHT22;28754;47.700;7.924;2023-08-24T00:48:47;23.40;99.90
42615;DHT22;28754;47.700;7.924;2023-08-24T00:51:34;23.30;99.90
42615;DHT22;28754;47.700;7.924;2023-08-24T00:54:21;23.40;99.90
42615;DHT22;28754;47.700;7.924;2023-08-24T00:57:07;23.30;99.90
42615;DHT22;28754;47.700;7.924;2023-08-24T00:59:59;23.20;99.90
42615;DHT22;28754;47.700;7.924;2023-08-24T01:02:52;23.20;99.90
42615;DHT22;28754;47.700;7.924;2023-08-24T01:05:38;23.20;99.90
42615;DHT22;28754;47.700;7.924;2023-08-24T01:08:25;23.20;99.90
42615;DHT22;28754;47.700;7.924;2023-08-24T01:11:26;23.20;99.90
42615;DHT22;28754;47.700;7.924;2023-08-24T01:17:11;23.20;99.90
42615;DHT22;28754;47.700;7.924;2023-08-24T01:20:02;23.20;99.90
42615;DHT22;28754;47.700;7.924;2023-08-24T01:29:04;23.00;99.90
42615;DHT22;28754;47.700;7.924;2023-08-24T01:31:51;23.00;99.90
42615;DHT22;28754;47.700;7.924;2023-08-24T01:34:38;23.00;99.90
42615;DHT22;28754;47.700;7.924;2023-08-24T01:37:26;23.00;99.90
42615;DHT22;28754;47.700;7.924;2023-08-24T01:43:18;23.00;99.90
42615;DHT22;28754;47.700;7.924;2023-08-24T01:46:08;22.90;99.90
42615;DHT22;28754;47.700;7.924;2023-08-24T01:48:58;23.00;99.90
42615;DHT22;28754;47.700;7.924;2023-08-24T01:51:46;22.90;99.90
42615;DHT22;28754;47.700;7.924;2023-08-24T01:54:33;23.00;99.90
42615;DHT22;28754;47.700;7.924;2023-08-24T01:57:20;23.00;99.90
42615;DHT22;28754;47.700;7.924;2023-08-24T02:00:07;22.90;99.90
42615;DHT22;28754;47.700;7.924;2023-08-24T02:03:00;22.90;99.90
42615;DHT22;28754;47.700;7.924;2023-08-24T02:05:47;22.90;99.90
42615;DHT22;28754;47.700;7.924;2023-08-24T02:08:34;22.90;99.90
42615;DHT22;28754;47.700;7.924;2023-08-24T02:11:23;22.80;99.90
42615;DHT22;28754;47.700;7.924;2023-08-24T02:14:09;22.80;99.90
42615;DHT22;28754;47.700;7.924;2023-08-24T02:16:57;22.80;99.90
42615;DHT22;28754;47.700;7.924;2023-08-24T02:19:44;22.90;99.90
42615;DHT22;28754;47.700;7.924;2023-08-24T02:22:31;22.80;99.90
42615;DHT22;28754;47.700;7.924;2023-08-24T02:25:18;22.80;99.90
42615;DHT22;28754;47.700;7.924;2023-08-24T02:28:04;22.80;99.90
42615;DHT22;28754;47.700;7.924;2023-08-24T02:30:51;22.80;99.90
42615;DHT22;28754;47.700;7.924;2023-08-24T02:33:38;22.70;99.90
42615;DHT22;28754;47.700;7.924;2023-08-24T02:36:25;22.70;99.90
42615;DHT22;28754;47.700;7.924;2023-08-24T02:39:11;22.70;99.90
42615;DHT22;28754;47.700;7.924;2023-08-24T02:41:58;22.60;99.90
42615;DHT22;28754;47.700;7.924;2023-08-24T02:44:45;22.70;99.90
42615;DHT22;28754;47.700;7.924;2023-08-24T02:47:32;22.70;99.90
42615;DHT22;28754;47.700;7.924;2023-08-24T02:50:19;22.70;99.90
42615;DHT22;28754;47.700;7.924;2023-08-24T02:53:05;22.70;99.90
42615;DHT22;28754;47.700;7.924;2023-08-24T02:55:53;22.70;99.90
42615;DHT22;28754;47.700;7.924;2023-08-24T02:58:41;22.70;99.90
42615;DHT22;28754;47.700;7.924;2023-08-24T03:01:28;22.70;99.90
42615;DHT22;28754;47.700;7.924;2023-08-24T03:04:14;22.70;99.90
42615;DHT22;28754;47.700;7.924;2023-08-24T03:07:01;22.70;99.90
42615;DHT22;28754;47.700;7.924;2023-08-24T03:09:48;22.70;99.90
42615;DHT22;28754;47.700;7.924;2023-08-24T03:12:34;22.80;99.90
42615;DHT22;28754;47.700;7.924;2023-08-24T03:15:21;22.80;99.90
42615;DHT22;28754;47.700;7.924;2023-08-24T03:18:11;22.80;99.90
42615;DHT22;28754;47.700;7.924;2023-08-24T03:20:59;22.80;99.90
42615;DHT22;28754;47.700;7.924;2023-08-24T03:23:47;22.80;99.90
42615;DHT22;28754;47.700;7.924;2023-08-24T03:26:33;22.70;99.90
42615;DHT22;28754;47.700;7.924;2023-08-24T03:29:20;22.70;99.90
42615;DHT22;28754;47.700;7.924;2023-08-24T03:32:07;22.60;99.90
42615;DHT22;28754;47.700;7.924;2023-08-24T03:34:59;22.60;99.90
42615;DHT22;28754;47.700;7.924;2023-08-24T03:37:46;22.70;99.90
42615;DHT22;28754;47.700;7.924;2023-08-24T03:40:33;22.60;99.90
42615;DHT22;28754;47.700;7.924;2023-08-24T03:43:20;22.50;99.90
42615;DHT22;28754;47.700;7.924;2023-08-24T03:46:06;22.50;99.90
42615;DHT22;28754;47.700;7.924;2023-08-24T03:48:53;22.50;99.90
42615;DHT22;28754;47.700;7.924;2023-08-24T03:51:40;22.50;99.90
42615;DHT22;28754;47.700;7.924;2023-08-24T03:54:26;22.50;99.90
42615;DHT22;28754;47.700;7.924;2023-08-24T03:57:14;22.60;99.90
42615;DHT22;28754;47.700;7.924;2023-08-24T04:00:02;22.50;99.90
42615;DHT22;28754;47.700;7.924;2023-08-24T04:03:00;22.50;99.90
42615;DHT22;28754;47.700;7.924;2023-08-24T04:05:47;22.50;99.90
42615;DHT22;28754;47.700;7.924;2023-08-24T04:08:34;22.50;99.90
42615;DHT22;28754;47.700;7.924;2023-08-24T04:11:21;22.60;99.90
42615;DHT22;28754;47.700;7.924;2023-08-24T04:14:08;22.60;99.90
42615;DHT22;28754;47.700;7.924;2023-08-24T04:16:55;22.60;99.90
42615;DHT22;28754;47.700;7.924;2023-08-24T04:19:42;22.70;99.90
42615;DHT22;28754;47.700;7.924;2023-08-24T04:22:28;22.70;99.90
42615;DHT22;28754;47.700;7.924;2023-08-24T04:25:15;22.70;99.90
42615;DHT22;28754;47.700;7.924;2023-08-24T04:28:02;22.60;99.90
42615;DHT22;28754;47.700;7.924;2023-08-24T04:30:54;22.70;99.90
42615;DHT22;28754;47.700;7.924;2023-08-24T04:33:43;22.70;99.90
42615;DHT22;28754;47.700;7.924;2023-08-24T04:36:30;22.70;99.90
42615;DHT22;28754;47.700;7.924;2023-08-24T04:39:16;22.70;99.90
42615;DHT22;28754;47.700;7.924;2023-08-24T04:42:05;22.70;99.90
42615;DHT22;28754;47.700;7.924;2023-08-24T04:44:52;22.70;99.90
42615;DHT22;28754;47.700;7.924;2023-08-24T04:47:39;22.60;99.90
42615;DHT22;28754;47.700;7.924;2023-08-24T04:50:25;22.60;99.90
42615;DHT22;28754;47.700;7.924;2023-08-24T04:53:15;22.60;99.90
42615;DHT22;28754;47.700;7.924;2023-08-24T04:56:03;22.60;99.90
42615;DHT22;28754;47.700;7.924;2023-08-24T04:58:54;22.70;99.90
42615;DHT22;28754;47.700;7.924;2023-08-24T05:01:43;22.80;99.90
42615;DHT22;28754;47.700;7.924;2023-08-24T05:04:29;22.80;99.90
42615;DHT22;28754;47.700;7.924;2023-08-24T05:07:16;22.80;99.90
42615;DHT22;28754;47.700;7.924;2023-08-24T05:10:04;22.80;99.90
42615;DHT22;28754;47.700;7.924;2023-08-24T05:12:51;22.90;99.90
42615;DHT22;28754;47.700;7.924;2023-08-24T05:15:38;22.90;99.90
42615;DHT22;28754;47.700;7.924;2023-08-24T05:18:24;22.90;99.90
42615;DHT22;28754;47.700;7.924;2023-08-24T05:21:11;23.00;99.90
42615;DHT22;28754;47.700;7.924;2023-08-24T05:23:58;23.10;99.90
42615;DHT22;28754;47.700;7.924;2023-08-24T05:26:44;23.20;99.90
42615;DHT22;28754;47.700;7.924;2023-08-24T05:29:31;23.40;99.90
42615;DHT22;28754;47.700;7.924;2023-08-24T05:32:18;23.50;99.90
42615;DHT22;28754;47.700;7.924;2023-08-24T05:35:08;23.60;99.90
42615;DHT22;28754;47.700;7.924;2023-08-24T05:37:55;23.80;99.90
42615;DHT22;28754;47.700;7.924;2023-08-24T05:40:42;24.00;99.90
42615;DHT22;28754;47.700;7.924;2023-08-24T05:43:30;24.10;99.90
42615;DHT22;28754;47.700;7.924;2023-08-24T05:46:16;24.20;99.90
42615;DHT22;28754;47.700;7.924;2023-08-24T05:49:03;24.30;99.90
42615;DHT22;28754;47.700;7.924;2023-08-24T05:51:51;24.30;99.90
42615;DHT22;28754;47.700;7.924;2023-08-24T05:54:38;24.30;99.90
42615;DHT22;28754;47.700;7.924;2023-08-24T05:57:25;24.30;99.90
42615;DHT22;28754;47.700;7.924;2023-08-24T06:00:12;24.30;99.90
42615;DHT22;28754;47.700;7.924;2023-08-24T06:03:01;24.30;99.90
42615;DHT22;28754;47.700;7.924;2023-08-24T06:05:49;24.30;99.90
42615;DHT22;28754;47.700;7.924;2023-08-24T06:08:35;24.40;99.90
42615;DHT22;28754;47.700;7.924;2023-08-24T06:11:22;24.40;99.90
42615;DHT22;28754;47.700;7.924;2023-08-24T06:14:09;24.50;99.90
42615;DHT22;28754;47.700;7.924;2023-08-24T06:16:55;24.60;99.90
42615;DHT22;28754;47.700;7.924;2023-08-24T06:19:43;24.70;99.90
42615;DHT22;28754;47.700;7.924;2023-08-24T06:22:29;24.60;99.90
42615;DHT22;28754;47.700;7.924;2023-08-24T06:25:16;24.70;99.90
42615;DHT22;28754;47.700;7.924;2023-08-24T06:28:03;24.70;99.90
42615;DHT22;28754;47.700;7.924;2023-08-24T06:30:50;24.90;99.90
42615;DHT22;28754;47.700;7.924;2023-08-24T06:33:38;24.80;99.90
42615;DHT22;28754;47.700;7.924;2023-08-24T06:36:25;25.00;99.90
42615;DHT22;28754;47.700;7.924;2023-08-24T06:39:11;25.20;99.90
42615;DHT22;28754;47.700;7.924;2023-08-24T06:41:59;25.10;99.90
42615;DHT22;28754;47.700;7.924;2023-08-24T06:44:47;25.10;99.90
42615;DHT22;28754;47.700;7.924;2023-08-24T06:47:36;25.50;99.90
42615;DHT22;28754;47.700;7.924;2023-08-24T06:50:23;25.60;99.90
42615;DHT22;28754;47.700;7.924;2023-08-24T06:53:10;25.80;99.90
42615;DHT22;28754;47.700;7.924;2023-08-24T06:55:57;26.10;99.90
42615;DHT22;28754;47.700;7.924;2023-08-24T06:58:45;26.30;99.90
42615;DHT22;28754;47.700;7.924;2023-08-24T07:01:31;26.20;99.90
42615;DHT22;28754;47.700;7.924;2023-08-24T07:04:18;26.40;99.90
42615;DHT22;28754;47.700;7.924;2023-08-24T07:07:05;26.30;99.90
42615;DHT22;28754;47.700;7.924;2023-08-24T07:09:52;26.20;99.90
42615;DHT22;28754;47.700;7.924;2023-08-24T07:12:39;26.10;99.90
42615;DHT22;28754;47.700;7.924;2023-08-24T07:15:27;26.00;99.90
42615;DHT22;28754;47.700;7.924;2023-08-24T07:18:13;26.10;99.90
42615;DHT22;28754;47.700;7.924;2023-08-24T07:21:00;26.00;99.90
42615;DHT22;28754;47.700;7.924;2023-08-24T07:23:47;26.10;99.90
42615;DHT22;28754;47.700;7.924;2023-08-24T07:26:33;26.40;99.90
42615;DHT22;28754;47.700;7.924;2023-08-24T07:29:20;26.60;99.90
42615;DHT22;28754;47.700;7.924;2023-08-24T07:32:07;26.80;99.90
42615;DHT22;28754;47.700;7.924;2023-08-24T07:34:54;26.90;99.90
42615;DHT22;28754;47.700;7.924;2023-08-24T07:37:41;27.20;99.90
42615;DHT22;28754;47.700;7.924;2023-08-24T07:40:27;27.30;99.90
42615;DHT22;28754;47.700;7.924;2023-08-24T07:43:14;27.30;99.90
42615;DHT22;28754;47.700;7.924;2023-08-24T07:46:01;27.60;99.90
42615;DHT22;28754;47.700;7.924;2023-08-24T07:48:47;27.80;99.90
42615;DHT22;28754;47.700;7.924;2023-08-24T07:51:34;27.60;99.90
42615;DHT22;28754;47.700;7.924;2023-08-24T07:54:21;27.70;99.90
42615;DHT22;28754;47.700;7.924;2023-08-24T07:57:07;27.90;99.90
42615;DHT22;28754;47.700;7.924;2023-08-24T07:59:54;27.80;99.90
42615;DHT22;28754;47.700;7.924;2023-08-24T08:02:41;27.80;99.90
42615;DHT22;28754;47.700;7.924;2023-08-24T08:05:28;28.00;99.90
42615;DHT22;28754;47.700;7.924;2023-08-24T08:08:15;28.10;99.90
42615;DHT22;28754;47.700;7.924;2023-08-24T08:11:02;28.30;99.90
42615;DHT22;28754;47.700;7.924;2023-08-24T08:13:49;28.50;99.90
42615;DHT22;28754;47.700;7.924;2023-08-24T08:16:35;28.50;99.90
42615;DHT22;28754;47.700;7.924;2023-08-24T08:19:23;28.50;99.90
42615;DHT22;28754;47.700;7.924;2023-08-24T08:22:15;28.50;99.90
42615;DHT22;28754;47.700;7.924;2023-08-24T08:25:02;28.60;99.90
42615;DHT22;28754;47.700;7.924;2023-08-24T08:27:49;28.60;99.90
42615;DHT22;28754;47.700;7.924;2023-08-24T08:30:36;28.90;99.90
42615;DHT22;28754;47.700;7.924;2023-08-24T08:33:23;28.90;99.90
42615;DHT22;28754;47.700;7.924;2023-08-24T08:36:10;28.70;99.90
42615;DHT22;28754;47.700;7.924;2023-08-24T08:38:57;28.90;99.90
42615;DHT22;28754;47.700;7.924;2023-08-24T08:41:45;29.00;99.90
42615;DHT22;28754;47.700;7.924;2023-08-24T08:44:33;29.10;99.90
42615;DHT22;28754;47.700;7.924;2023-08-24T08:47:20;29.30;99.90
42615;DHT22;28754;47.700;7.924;2023-08-24T08:50:09;29.50;99.90
42615;DHT22;28754;47.700;7.924;2023-08-24T08:52:56;29.50;99.90
42615;DHT22;28754;47.700;7.924;2023-08-24T08:55:45;29.60;99.90
42615;DHT22;28754;47.700;7.924;2023-08-24T08:58:42;29.90;99.90
42615;DHT22;28754;47.700;7.924;2023-08-24T09:01:30;29.70;99.90
42615;DHT22;28754;47.700;7.924;2023-08-24T09:04:17;29.90;99.90
42615;DHT22;28754;47.700;7.924;2023-08-24T09:07:04;30.00;99.90
42615;DHT22;28754;47.700;7.924;2023-08-24T09:09:56;30.30;99.90
42615;DHT22;28754;47.700;7.924;2023-08-24T09:12:43;30.70;99.90
42615;DHT22;28754;47.700;7.924;2023-08-24T09:15:34;30.70;99.90
42615;DHT22;28754;47.700;7.924;2023-08-24T09:18:37;30.80;99.90
42615;DHT22;28754;47.700;7.924;2023-08-24T09:21:24;30.30;99.90
42615;DHT22;28754;47.700;7.924;2023-08-24T09:24:11;30.00;99.90
42615;DHT22;28754;47.700;7.924;2023-08-24T09:26:59;29.70;99.90
42615;DHT22;28754;47.700;7.924;2023-08-24T09:29:51;30.20;99.90
42615;DHT22;28754;47.700;7.924;2023-08-24T09:32:39;30.00;99.90
42615;DHT22;28754;47.700;7.924;2023-08-24T09:35:36;29.70;99.90
42615;DHT22;28754;47.700;7.924;2023-08-24T09:38:23;29.90;99.90
42615;DHT22;28754;47.700;7.924;2023-08-24T09:41:10;29.80;99.90
42615;DHT22;28754;47.700;7.924;2023-08-24T09:44:03;30.00;99.90
42615;DHT22;28754;47.700;7.924;2023-08-24T09:46:50;30.00;99.90
42615;DHT22;28754;47.700;7.924;2023-08-24T09:49:38;29.70;99.90
42615;DHT22;28754;47.700;7.924;2023-08-24T09:52:30;30.30;99.90
42615;DHT22;28754;47.700;7.924;2023-08-24T09:55:20;30.30;99.90
42615;DHT22;28754;47.700;7.924;2023-08-24T09:58:09;31.00;99.90
42615;DHT22;28754;47.700;7.924;2023-08-24T10:00:57;30.30;99.90
42615;DHT22;28754;47.700;7.924;2023-08-24T10:03:44;30.10;99.90
42615;DHT22;28754;47.700;7.924;2023-08-24T10:06:32;30.30;99.90
42615;DHT22;28754;47.700;7.924;2023-08-24T10:09:27;30.20;99.90
42615;DHT22;28754;47.700;7.924;2023-08-24T10:12:25;30.30;99.90
42615;DHT22;28754;47.700;7.924;2023-08-24T10:15:15;30.10;99.90
42615;DHT22;28754;47.700;7.924;2023-08-24T10:18:05;30.20;99.90
42615;DHT22;28754;47.700;7.924;2023-08-24T10:20:56;30.40;99.90
42615;DHT22;28754;47.700;7.924;2023-08-24T10:23:43;30.50;99.90
42615;DHT22;28754;47.700;7.924;2023-08-24T10:26:32;30.30;99.90
42615;DHT22;28754;47.700;7.924;2023-08-24T10:29:20;30.70;99.90
42615;DHT22;28754;47.700;7.924;2023-08-24T10:32:08;31.00;99.90
42615;DHT22;28754;47.700;7.924;2023-08-24T10:34:55;31.00;99.90
42615;DHT22;28754;47.700;7.924;2023-08-24T10:37:44;31.00;99.90
42615;DHT22;28754;47.700;7.924;2023-08-24T10:40:37;30.60;99.90
42615;DHT22;28754;47.700;7.924;2023-08-24T10:43:33;30.10;99.90
42615;DHT22;28754;47.700;7.924;2023-08-24T10:46:21;30.80;99.90
42615;DHT22;28754;47.700;7.924;2023-08-24T10:49:08;30.90;99.90
42615;DHT22;28754;47.700;7.924;2023-08-24T10:51:54;30.80;99.90
42615;DHT22;28754;47.700;7.924;2023-08-24T10:54:46;30.80;99.90
42615;DHT22;28754;47.700;7.924;2023-08-24T10:57:36;30.60;99.90
42615;DHT22;28754;47.700;7.924;2023-08-24T11:00:29;30.80;99.90
42615;DHT22;28754;47.700;7.924;2023-08-24T11:03:31;30.90;99.90
42615;DHT22;28754;47.700;7.924;2023-08-24T11:06:20;31.00;99.90
42615;DHT22;28754;47.700;7.924;2023-08-24T11:09:09;31.00;99.90
42615;DHT22;28754;47.700;7.924;2023-08-24T11:12:03;31.10;99.90
42615;DHT22;28754;47.700;7.924;2023-08-24T11:14:52;31.10;99.90
42615;DHT22;28754;47.700;7.924;2023-08-24T11:17:45;31.40;99.90
42615;DHT22;28754;47.700;7.924;2023-08-24T11:20:32;31.00;99.90
42615;DHT22;28754;47.700;7.924;2023-08-24T11:23:21;31.20;99.90
42615;DHT22;28754;47.700;7.924;2023-08-24T11:26:08;31.60;99.90
42615;DHT22;28754;47.700;7.924;2023-08-24T11:28:55;31.40;99.90
42615;DHT22;28754;47.700;7.924;2023-08-24T11:31:44;31.70;99.90
42615;DHT22;28754;47.700;7.924;2023-08-24T11:34:30;31.30;99.90
42615;DHT22;28754;47.700;7.924;2023-08-24T11:37:19;32.10;99.90
42615;DHT22;28754;47.700;7.924;2023-08-24T11:40:15;31.90;99.90
42615;DHT22;28754;47.700;7.924;2023-08-24T11:43:03;32.10;99.90
42615;DHT22;28754;47.700;7.924;2023-08-24T11:45:51;32.60;99.90
42615;DHT22;28754;47.700;7.924;2023-08-24T11:48:38;32.70;99.90
42615;DHT22;28754;47.700;7.924;2023-08-24T11:51:26;33.10;99.90
42615;DHT22;28754;47.700;7.924;2023-08-24T11:54:12;33.60;99.90
42615;DHT22;28754;47.700;7.924;2023-08-24T11:56:59;33.50;99.90
42615;DHT22;28754;47.700;7.924;2023-08-24T11:59:46;33.20;99.90
42615;DHT22;28754;47.700;7.924;2023-08-24T12:02:33;33.50;99.90
42615;DHT22;28754;47.700;7.924;2023-08-24T12:05:24;33.40;99.90
42615;DHT22;28754;47.700;7.924;2023-08-24T12:08:12;33.20;99.90
42615;DHT22;28754;47.700;7.924;2023-08-24T12:10:59;33.30;99.90
42615;DHT22;28754;47.700;7.924;2023-08-24T12:13:48;33.40;99.90
42615;DHT22;28754;47.700;7.924;2023-08-24T12:16:35;32.90;99.90
42615;DHT22;28754;47.700;7.924;2023-08-24T12:19:23;33.00;99.90
42615;DHT22;28754;47.700;7.924;2023-08-24T12:22:14;33.40;99.90
42615;DHT22;28754;47.700;7.924;2023-08-24T12:25:06;33.10;99.90
42615;DHT22;28754;47.700;7.924;2023-08-24T12:28:13;32.70;99.90
42615;DHT22;28754;47.700;7.924;2023-08-24T12:31:04;32.60;99.90
42615;DHT22;28754;47.700;7.924;2023-08-24T12:34:03;33.10;99.90
42615;DHT22;28754;47.700;7.924;2023-08-24T12:36:50;32.90;99.90
42615;DHT22;28754;47.700;7.924;2023-08-24T12:39:40;32.90;99.90
42615;DHT22;28754;47.700;7.924;2023-08-24T12:42:29;33.00;99.90
42615;DHT22;28754;47.700;7.924;2023-08-24T12:45:16;33.70;99.90
42615;DHT22;28754;47.700;7.924;2023-08-24T12:48:04;33.10;99.90
42615;DHT22;28754;47.700;7.924;2023-08-24T12:50:51;33.30;99.90
42615;DHT22;28754;47.700;7.924;2023-08-24T12:53:37;33.70;99.90
42615;DHT22;28754;47.700;7.924;2023-08-24T12:56:24;33.50;99.90
42615;DHT22;28754;47.700;7.924;2023-08-24T12:59:11;33.30;99.90
42615;DHT22;28754;47.700;7.924;2023-08-24T13:01:58;33.20;99.90
42615;DHT22;28754;47.700;7.924;2023-08-24T13:04:45;32.80;99.90
42615;DHT22;28754;47.700;7.924;2023-08-24T13:07:31;32.90;99.90
42615;DHT22;28754;47.700;7.924;2023-08-24T13:10:18;33.30;99.90
42615;DHT22;28754;47.700;7.924;2023-08-24T13:13:05;32.90;99.90
42615;DHT22;28754;47.700;7.924;2023-08-24T13:15:51;32.80;99.90
42615;DHT22;28754;47.700;7.924;2023-08-24T13:18:38;33.20;99.90
42615;DHT22;28754;47.700;7.924;2023-08-24T13:21:25;33.30;99.90
42615;DHT22;28754;47.700;7.924;2023-08-24T13:24:13;33.10;99.90
42615;DHT22;28754;47.700;7.924;2023-08-24T13:27:00;33.00;99.90
42615;DHT22;28754;47.700;7.924;2023-08-24T13:29:46;33.70;99.90
42615;DHT22;28754;47.700;7.924;2023-08-24T13:32:33;34.30;99.90
42615;DHT22;28754;47.700;7.924;2023-08-24T13:35:21;34.10;99.90
42615;DHT22;28754;47.700;7.924;2023-08-24T13:38:08;34.10;99.90
42615;DHT22;28754;47.700;7.924;2023-08-24T13:40:55;33.60;99.90
42615;DHT22;28754;47.700;7.924;2023-08-24T13:43:42;33.80;99.90
42615;DHT22;28754;47.700;7.924;2023-08-24T13:46:29;34.40;99.90
42615;DHT22;28754;47.700;7.924;2023-08-24T13:49:16;33.90;99.90
42615;DHT22;28754;47.700;7.924;2023-08-24T13:52:04;34.20;99.90
42615;DHT22;28754;47.700;7.924;2023-08-24T13:54:50;34.50;99.90
42615;DHT22;28754;47.700;7.924;2023-08-24T13:57:37;34.90;99.90
42615;DHT22;28754;47.700;7.924;2023-08-24T14:00:25;34.50;99.90
42615;DHT22;28754;47.700;7.924;2023-08-24T14:03:12;34.50;99.90
42615;DHT22;28754;47.700;7.924;2023-08-24T14:05:59;34.90;99.90
42615;DHT22;28754;47.700;7.924;2023-08-24T14:08:46;35.00;99.90
42615;DHT22;28754;47.700;7.924;2023-08-24T14:11:33;36.30;99.90
42615;DHT22;28754;47.700;7.924;2023-08-24T14:14:20;36.60;99.90
42615;DHT22;28754;47.700;7.924;2023-08-24T14:17:07;36.10;99.90
42615;DHT22;28754;47.700;7.924;2023-08-24T14:19:56;37.30;99.90
42615;DHT22;28754;47.700;7.924;2023-08-24T14:22:46;37.40;99.90
42615;DHT22;28754;47.700;7.924;2023-08-24T14:25:34;37.20;99.90
42615;DHT22;28754;47.700;7.924;2023-08-24T14:31:54;36.20;99.90
42615;DHT22;28754;47.700;7.924;2023-08-24T14:34:50;35.00;99.90
42615;DHT22;28754;47.700;7.924;2023-08-24T14:37:42;34.80;99.90
42615;DHT22;28754;47.700;7.924;2023-08-24T14:40:32;35.20;99.90
42615;DHT22;28754;47.700;7.924;2023-08-24T14:43:22;35.70;99.90
42615;DHT22;28754;47.700;7.924;2023-08-24T14:46:11;36.20;99.90
42615;DHT22;28754;47.700;7.924;2023-08-24T14:48:58;36.10;99.90
42615;DHT22;28754;47.700;7.924;2023-08-24T14:51:55;36.30;99.90
42615;DHT22;28754;47.700;7.924;2023-08-24T14:54:50;36.60;99.90
42615;DHT22;28754;47.700;7.924;2023-08-24T14:57:43;36.40;99.90
42615;DHT22;28754;47.700;7.924;2023-08-24T15:00:49;35.80;99.90
42615;DHT22;28754;47.700;7.924;2023-08-24T15:03:43;35.30;99.90
42615;DHT22;28754;47.700;7.924;2023-08-24T15:06:30;34.80;99.90
42615;DHT22;28754;47.700;7.924;2023-08-24T15:09:17;34.50;99.90
42615;DHT22;28754;47.700;7.924;2023-08-24T15:12:04;34.40;99.90
42615;DHT22;28754;47.700;7.924;2023-08-24T15:14:59;34.60;99.90
42615;DHT22;28754;47.700;7.924;2023-08-24T15:17:47;35.10;99.90
42615;DHT22;28754;47.700;7.924;2023-08-24T15:20:36;34.70;99.90
42615;DHT22;28754;47.700;7.924;2023-08-24T15:23:30;35.00;99.90
42615;DHT22;28754;47.700;7.924;2023-08-24T15:26:17;35.10;99.90
42615;DHT22;28754;47.700;7.924;2023-08-24T15:29:08;35.00;99.90
42615;DHT22;28754;47.700;7.924;2023-08-24T15:32:02;34.70;99.90
42615;DHT22;28754;47.700;7.924;2023-08-24T15:34:49;34.50;99.90
42615;DHT22;28754;47.700;7.924;2023-08-24T15:37:36;34.40;99.90
42615;DHT22;28754;47.700;7.924;2023-08-24T15:40:29;34.20;99.90
42615;DHT22;28754;47.700;7.924;2023-08-24T15:43:21;34.00;99.90
42615;DHT22;28754;47.700;7.924;2023-08-24T15:46:08;34.00;99.90
42615;DHT22;28754;47.700;7.924;2023-08-24T15:48:55;34.00;99.90
42615;DHT22;28754;47.700;7.924;2023-08-24T15:51:42;34.10;99.90
42615;DHT22;28754;47.700;7.924;2023-08-24T15:54:28;34.00;99.90
42615;DHT22;28754;47.700;7.924;2023-08-24T15:57:15;33.90;99.90
42615;DHT22;28754;47.700;7.924;2023-08-24T16:00:03;33.90;99.90
42615;DHT22;28754;47.700;7.924;2023-08-24T16:02:58;33.80;99.90
42615;DHT22;28754;47.700;7.924;2023-08-24T16:05:45;33.70;99.90
42615;DHT22;28754;47.700;7.924;2023-08-24T16:08:32;33.80;99.90
42615;DHT22;28754;47.700;7.924;2023-08-24T16:11:20;33.50;99.90
42615;DHT22;28754;47.700;7.924;2023-08-24T16:14:07;33.40;99.90
42615;DHT22;28754;47.700;7.924;2023-08-24T16:16:57;33.10;99.90
42615;DHT22;28754;47.700;7.924;2023-08-24T16:19:44;33.00;99.90
42615;DHT22;28754;47.700;7.924;2023-08-24T16:22:31;32.80;99.90
42615;DHT22;28754;47.700;7.924;2023-08-24T16:25:18;32.50;99.90
42615;DHT22;28754;47.700;7.924;2023-08-24T16:28:05;32.30;99.90
42615;DHT22;28754;47.700;7.924;2023-08-24T16:30:55;32.10;99.90
42615;DHT22;28754;47.700;7.924;2023-08-24T16:33:42;31.90;99.90
42615;DHT22;28754;47.700;7.924;2023-08-24T16:36:28;31.80;99.90
42615;DHT22;28754;47.700;7.924;2023-08-24T16:39:18;31.70;99.90
42615;DHT22;28754;47.700;7.924;2023-08-24T16:42:05;31.50;99.90
42615;DHT22;28754;47.700;7.924;2023-08-24T16:44:51;31.50;99.90
42615;DHT22;28754;47.700;7.924;2023-08-24T17:27:12;23.90;99.90
42615;DHT22;28754;47.700;7.924;2023-08-24T17:29:59;24.20;99.90
42615;DHT22;28754;47.700;7.924;2023-08-24T17:32:46;24.40;99.90
42615;DHT22;28754;47.700;7.924;2023-08-24T17:35:32;24.20;99.90
42615;DHT22;28754;47.700;7.924;2023-08-24T17:38:19;24.00;99.90
42615;DHT22;28754;47.700;7.924;2023-08-24T17:41:06;22.60;99.90
42615;DHT22;28754;47.700;7.924;2023-08-24T17:43:53;22.20;99.90
42615;DHT22;28754;47.700;7.924;2023-08-24T17:46:40;22.40;99.90
42615;DHT22;28754;47.700;7.924;2023-08-24T17:49:27;22.20;99.90
42615;DHT22;28754;47.700;7.924;2023-08-24T18:10:02;21.90;99.90
42615;DHT22;28754;47.700;7.924;2023-08-24T18:12:49;22.00;99.90
42615;DHT22;28754;47.700;7.924;2023-08-24T18:15:37;21.90;99.90
42615;DHT22;28754;47.700;7.924;2023-08-24T18:18:25;21.80;99.90
42615;DHT22;28754;47.700;7.924;2023-08-24T18:21:11;21.60;99.90
42615;DHT22;28754;47.700;7.924;2023-08-24T18:24:01;21.80;99.90
42615;DHT22;28754;47.700;7.924;2023-08-24T18:26:48;21.70;99.90
42615;DHT22;28754;47.700;7.924;2023-08-24T18:29:35;21.80;99.90
42615;DHT22;28754;47.700;7.924;2023-08-24T18:32:22;21.90;99.90
42615;DHT22;28754;47.700;7.924;2023-08-24T18:35:09;22.00;99.90
42615;DHT22;28754;47.700;7.924;2023-08-24T18:37:55;21.90;99.90
42615;DHT22;28754;47.700;7.924;2023-08-24T18:40:42;21.90;99.90
42615;DHT22;28754;47.700;7.924;2023-08-24T18:43:32;21.90;99.90
42615;DHT22;28754;47.700;7.924;2023-08-24T18:46:19;21.80;99.90
42615;DHT22;28754;47.700;7.924;2023-08-24T18:49:05;21.70;99.90
42615;DHT22;28754;47.700;7.924;2023-08-24T18:51:52;21.60;99.90
42615;DHT22;28754;47.700;7.924;2023-08-24T18:54:42;21.70;99.90